| Date | Time | Temp. (oF) | Dew Point (oF) | Rel. Hum. (%) | Press. (in.) | Wind Dir. | Wind Speed (mph) | Hourly Rainfall (in.) |
|
|---|---|---|---|---|---|---|---|---|---|
| 1 | 02/12 | 00:00 | 27 | 18 | 70 | 29.86 | WNW | 4 | 0.00 |
| 2 | 02/11 | 23:00 | 27 | 18 | 70 | 29.86 | WNW | 10 | 0.00 |
| 3 | 02/11 | 22:00 | 27 | 17 | 67 | 29.87 | W | 9 | 0.00 |
| 4 | 02/11 | 21:00 | 28 | 17 | 64 | 29.86 | WSW | 7 | 0.00 |
| 5 | 02/11 | 20:00 | 29 | 16 | 60 | 29.87 | WSW | 10 | 0.00 |
| 6 | 02/11 | 19:00 | 31 | 16 | 55 | 29.86 | WSW | 9 | 0.00 |
| 7 | 02/11 | 18:00 | 33 | 16 | 51 | 29.83 | WNW | 5 | 0.00 |
| 8 | 02/11 | 17:00 | 34 | 14 | 44 | 29.81 | WSW | 5 | 0.00 |
| 9 | 02/11 | 16:00 | 34 | 12 | 41 | 29.80 | NW | 10 | 0.00 |
| 10 | miss | miss | miss | miss | miss | miss | miss | miss | |
| 11 | 02/11 | 15:25 | 35 | 12 | 39 | 29.78 | W | 16 | 0.00 |
| 12 | miss | miss | miss | miss | miss | miss | miss | miss | |
| 13 | 02/11 | 15:23 | 35 | 11 | 38 | 29.78 | WSW | 9 | 0.00 |
| 14 | miss | miss | miss | miss | miss | miss | miss | miss | |
| 15 | 02/11 | 15:21 | 35 | 11 | 38 | 29.78 | WNW | 11 | 0.00 |
| 16 | miss | miss | miss | miss | miss | miss | miss | miss | |
| 17 | 02/11 | 15:19 | 36 | 13 | 39 | 29.78 | W | 21 | 0.00 |
| 18 | miss | miss | miss | miss | miss | miss | miss | miss | |
| 19 | 02/11 | 15:17 | 36 | 13 | 39 | 29.78 | W | 23 | 0.00 |
| 20 | miss | miss | miss | miss | miss | miss | miss | miss | |
| 21 | 02/11 | 15:15 | 36 | 13 | 39 | 29.78 | WNW | 17 | 0.00 |
| 22 | miss | miss | miss | miss | miss | miss | miss | miss | |
| 23 | 02/11 | 15:13 | 36 | 13 | 39 | 29.78 | WNW | 15 | 0.00 |
| 24 | miss | miss | miss | miss | miss | miss | miss | miss | |
| 25 | 02/11 | 15:11 | 36 | 12 | 38 | 29.78 | W | 13 | 0.00 |
| 26 | miss | miss | miss | miss | miss | miss | miss | miss | |
| 27 | 02/11 | 15:11 | 36 | 12 | 38 | 29.78 | W | 13 | 0.00 |
| 28 | miss | miss | miss | miss | miss | miss | miss | miss | |
| 29 | 02/11 | 15:11 | 36 | 12 | 38 | 29.78 | W | 13 | 0.00 |
| 30 | miss | miss | miss | miss | miss | miss | miss | miss | |
| 31 | 02/11 | 15:11 | 36 | 12 | 38 | 29.78 | W | 13 | 0.00 |
| 32 | miss | miss | miss | miss | miss | miss | miss | miss | |
| 33 | 02/11 | 15:11 | 36 | 12 | 38 | 29.78 | W | 13 | 0.00 |
| 34 | 02/11 | 15:00 | 36 | 12 | 37 | 29.78 | WNW | 13 | 0.00 |
| 35 | 02/11 | 14:00 | 37 | 13 | 37 | 29.78 | W | 25 | 0.00 |
| 36 | 02/11 | 13:00 | 37 | 15 | 41 | 29.81 | NW | 12 | 0.00 |
| 37 | 02/11 | 12:00 | 34 | 12 | 41 | 29.84 | NW | 9 | 0.00 |
| 38 | 02/11 | 11:00 | 32 | 12 | 44 | 29.86 | WNW | 10 | 0.00 |
| 39 | 02/11 | 10:00 | 30 | 11 | 45 | 29.87 | NW | 8 | 0.00 |
| 40 | 02/11 | 09:00 | 28 | 12 | 52 | 29.89 | NNW | 12 | 0.00 |
| 41 | 02/11 | 08:00 | 25 | 13 | 60 | 29.90 | WNW | 8 | 0.00 |
| 42 | 02/11 | 07:00 | 23 | 12 | 64 | 29.89 | W | 13 | 0.00 |
| 43 | 02/11 | 06:00 | 24 | 13 | 63 | 29.87 | NW | 12 | 0.00 |
| 44 | 02/11 | 05:00 | 24 | 13 | 64 | 29.85 | NW | 11 | 0.00 |
| 45 | 02/11 | 04:00 | 25 | 14 | 65 | 29.84 | WNW | 16 | 0.00 |
| 46 | 02/11 | 03:00 | 26 | 16 | 67 | 29.81 | WNW | 19 | 0.00 |
| 47 | 02/11 | 02:00 | 27 | 17 | 67 | 29.80 | WNW | 14 | 0.00 |
| 48 | 02/11 | 01:00 | 29 | 20 | 69 | 29.78 | NW | 9 | 0.00 |
| 49 | 02/11 | 00:00 | 29 | 20 | 70 | 29.77 | NW | 6 | 0.00 |
| 50 | 02/10 | 23:00 | 29 | 20 | 70 | 29.76 | WNW | 15 | 0.00 |
| 51 | 02/10 | 22:00 | 29 | 20 | 69 | 29.76 | WNW | 13 | 0.00 |
| 52 | 02/10 | 21:00 | 29 | 20 | 70 | 29.74 | WNW | 12 | 0.00 |
| 53 | 02/10 | 20:00 | 30 | 20 | 68 | 29.73 | WNW | 6 | 0.00 |
| 54 | 02/10 | 19:00 | 31 | 21 | 68 | 29.71 | WNW | 17 | 0.00 |
| 55 | miss | miss | miss | miss | miss | miss | miss | miss | |
| 56 | 02/10 | 18:40 | 31 | 21 | 68 | 29.71 | NW | 7 | 0.00 |
| 57 | miss | miss | miss | miss | miss | miss | miss | miss | |
| 58 | 02/10 | 18:38 | 31 | 21 | 68 | 29.71 | W | 18 | 0.00 |
| 59 | miss | miss | miss | miss | miss | miss | miss | miss | |
| 60 | 02/10 | 18:36 | 31 | 21 | 68 | 29.71 | NW | 7 | 0.00 |
| 61 | miss | miss | miss | miss | miss | miss | miss | miss | |
| 62 | 02/10 | 18:34 | 31 | 21 | 68 | 29.70 | WNW | 9 | 0.00 |
| 63 | miss | miss | miss | miss | miss | miss | miss | miss | |
| 64 | 02/10 | 18:32 | 31 | 21 | 68 | 29.70 | WNW | 6 | 0.00 |
| 65 | miss | miss | miss | miss | miss | miss | miss | miss | |
| 66 | 02/10 | 18:30 | 31 | 21 | 67 | 29.70 | WNW | 15 | 0.00 |
| 67 | miss | miss | miss | miss | miss | miss | miss | miss | |
| 68 | 02/10 | 18:28 | 31 | 21 | 67 | 29.70 | WNW | 9 | 0.00 |
| 69 | miss | miss | miss | miss | miss | miss | miss | miss | |
| 70 | 02/10 | 18:26 | 31 | 21 | 68 | 29.70 | WNW | 7 | 0.00 |
| 71 | miss | miss | miss | miss | miss | miss | miss | miss | |
| 72 | 02/10 | 18:24 | 31 | 21 | 67 | 29.70 | W | 16 | 0.00 |
| 73 | miss | miss | miss | miss | miss | miss | miss | miss | |
| 74 | 02/10 | 18:23 | 31 | 21 | 67 | 29.70 | WNW | 17 | 0.00 |
| 75 | miss | miss | miss | miss | miss | miss | miss | miss | |
| 76 | 02/10 | 18:23 | 31 | 21 | 67 | 29.70 | WNW | 17 | 0.00 |
| 77 | miss | miss | miss | miss | miss | miss | miss | miss | |
| 78 | 02/10 | 18:23 | 31 | 21 | 67 | 29.70 | WNW | 17 | 0.00 |
| 79 | 02/10 | 18:00 | 31 | 21 | 67 | 29.70 | WNW | 17 | 0.00 |
| 80 | 02/10 | 17:00 | 34 | 22 | 62 | 29.69 | NW | 12 | 0.00 |
| 81 | 02/10 | 16:00 | 35 | 23 | 63 | 29.67 | NNW | 9 | 0.00 |
| 82 | 02/10 | 15:00 | 36 | 24 | 63 | 29.64 | NW | 11 | 0.00 |
| 83 | 02/10 | 14:00 | 36 | 24 | 62 | 29.64 | NW | 11 | 0.00 |
| 84 | 02/10 | 13:00 | 35 | 25 | 69 | 29.66 | WNW | 19 | 0.00 |
| 85 | 02/10 | 12:00 | 36 | 28 | 73 | 29.68 | W | 22 | 0.00 |
| 86 | 02/10 | 11:00 | 36 | 28 | 74 | 29.68 | WNW | 13 | 0.00 |
| 87 | 02/10 | 10:00 | 36 | 29 | 77 | 29.69 | WNW | 10 | 0.00 |
| 88 | 02/10 | 09:00 | 37 | 32 | 82 | 29.68 | NW | 8 | 0.00 |
| 89 | 02/10 | 08:00 | 38 | 34 | 88 | 29.67 | NW | 12 | 0.00 |
| 90 | 02/10 | 07:00 | 38 | 34 | 87 | 29.65 | W | 15 | 0.00 |
| 91 | 02/10 | 06:00 | 41 | 39 | 96 | 29.63 | NW | 6 | 0.00 |
| 92 | 02/10 | 05:00 | 42 | 41 | 100 | 29.62 | NW | 3 | 0.00 |
| 93 | 02/10 | 04:00 | 43 | 42 | 100 | 29.63 | W | 4 | 0.00 |
| 94 | 02/10 | 03:00 | 43 | 42 | 100 | 29.63 | WNW | 3 | 0.01 |
| 95 | 02/10 | 02:00 | 43 | 42 | 99 | 29.64 | WNW | 2 | 0.05 |
| 96 | 02/10 | 01:00 | 43 | 41 | 94 | 29.67 | SSW | 2 | 0.00 |
| 97 | 02/10 | 00:00 | 43 | 39 | 89 | 29.68 | WNW | 5 | -0.06 |